Time;durP1;ratioP1;P1;durP2;ratioP2;P2;SDS_P1;SDS_P2;PMS_P1;PMS_P2;Temp;Humidity;BMP_temperature;BMP_pressure;BME280_temperature;BME280_humidity;BME280_pressure;Samples;Min_cycle;Max_cycle;Signal;HPM_P1;HPM_P2
2023/10/28 00:00:55;;;;;;;7.20;3.40;;;;;;;15.21;85.02;97786.05;107707;1260;73579;-72
2023/10/28 00:03:23;;;;;;;8.30;3.70;;;;;;;15.19;85.08;97776.94;107675;1260;72903;-72
2023/10/28 00:05:49;;;;;;;6.10;3.20;;;;;;;15.19;85.14;97769.48;107662;1259;72514;-72
2023/10/28 00:08:16;;;;;;;5.40;3.20;;;;;;;15.18;85.19;97761.41;107774;1257;61277;-72
2023/10/28 00:10:44;;;;;;;5.80;3.10;;;;;;;15.19;85.24;97766.10;107897;1257;61203;-72
2023/10/28 00:13:12;;;;;;;6.60;3.40;;;;;;;15.20;85.24;97755.00;107765;1257;73712;-72
2023/10/28 00:15:39;;;;;;;7.90;3.50;;;;;;;15.21;85.25;97750.09;107837;1258;72857;-71
2023/10/28 00:18:08;;;;;;;6.60;3.60;;;;;;;15.22;85.31;97750.48;107825;1257;72684;-71
2023/10/28 00:20:36;;;;;;;5.90;3.50;;;;;;;15.24;85.35;97749.01;107789;1257;62919;-72
2023/10/28 00:23:06;;;;;;;6.60;3.70;;;;;;;15.27;85.35;97738.21;107830;1257;61189;-72
2023/10/28 00:25:33;;;;;;;11.10;3.70;;;;;;;15.28;85.43;97734.54;107782;1257;74891;-72
2023/10/28 00:28:01;;;;;;;6.70;3.60;;;;;;;15.30;85.48;97726.12;107796;1257;72710;-71
2023/10/28 00:30:28;;;;;;;10.00;3.70;;;;;;;15.31;85.39;97718.70;107541;1263;240229;-70
2023/10/28 00:33:01;;;;;;;7.10;4.00;;;;;;;15.33;85.44;97717.72;107743;1260;61767;-72
2023/10/28 00:35:28;;;;;;;8.50;3.70;;;;;;;15.34;85.46;97710.22;107693;1257;61561;-74
2023/10/28 00:37:57;;;;;;;7.00;3.30;;;;;;;15.36;85.42;97702.73;107752;1260;74729;-71
2023/10/28 00:40:28;;;;;;;12.30;4.50;;;;;;;15.38;85.37;97693.92;107574;1259;72520;-72
2023/10/28 00:42:56;;;;;;;10.90;3.80;;;;;;;15.39;85.35;97692.25;107714;1260;72833;-71
2023/10/28 00:45:23;;;;;;;7.20;3.90;;;;;;;15.42;85.23;97689.52;107789;1257;61778;-72
2023/10/28 00:47:53;;;;;;;9.90;3.80;;;;;;;15.43;85.24;97677.95;107761;1259;61190;-72
2023/10/28 00:50:23;;;;;;;7.20;3.30;;;;;;;15.46;85.00;97677.30;107736;1261;74469;-71
2023/10/28 00:52:53;;;;;;;7.80;3.50;;;;;;;15.47;84.90;97677.02;107626;1260;72571;-70
2023/10/28 00:55:23;;;;;;;9.50;3.40;;;;;;;15.49;84.80;97662.84;107700;1258;72448;-70
2023/10/28 00:57:50;;;;;;;7.90;3.00;;;;;;;15.53;84.69;97667.35;107679;1259;61205;-70
2023/10/28 01:00:17;;;;;;;7.60;3.20;;;;;;;15.56;84.63;97659.70;107529;1261;60105;-71
2023/10/28 01:02:45;;;;;;;7.50;3.00;;;;;;;15.59;84.41;97654.62;107800;1257;74925;-73
2023/10/28 01:05:13;;;;;;;5.30;2.80;;;;;;;15.63;84.39;97651.98;107807;1257;73164;-71
2023/10/28 01:07:42;;;;;;;6.00;2.90;;;;;;;15.66;84.22;97645.90;107777;1261;72671;-73
2023/10/28 01:10:09;;;;;;;4.70;2.50;;;;;;;15.71;83.85;97657.98;107751;1259;61964;-71
2023/10/28 01:12:39;;;;;;;6.10;2.60;;;;;;;15.76;83.59;97651.65;107672;1260;61185;-72
2023/10/28 01:15:07;;;;;;;7.30;3.00;;;;;;;15.83;83.21;97648.46;107771;1258;74628;-73
2023/10/28 01:17:35;;;;;;;7.70;2.50;;;;;;;15.88;82.87;97639.92;107818;1257;72713;-72
2023/10/28 01:20:03;;;;;;;4.80;2.30;;;;;;;15.92;82.53;97633.28;107653;1257;71601;-71
2023/10/28 01:22:32;;;;;;;5.40;2.70;;;;;;;15.96;82.01;97633.65;107726;1257;61726;-71
2023/10/28 01:24:59;;;;;;;5.30;2.50;;;;;;;15.99;81.50;97631.55;107622;1259;61177;-70
2023/10/28 01:27:26;;;;;;;5.80;2.20;;;;;;;16.02;81.11;97624.96;107778;1259;74829;-72
2023/10/28 01:29:53;;;;;;;5.90;2.70;;;;;;;16.06;80.65;97620.78;107733;1259;71520;-72
2023/10/28 01:32:20;;;;;;;5.80;2.50;;;;;;;16.09;80.20;97622.30;107629;1257;72514;-73
2023/10/28 01:34:52;;;;;;;4.90;2.20;;;;;;;16.12;79.80;97618.88;107806;1257;61944;-71
2023/10/28 01:37:19;;;;;;;4.20;2.20;;;;;;;16.17;79.50;97615.38;107779;1257;61223;-71
2023/10/28 01:39:48;;;;;;;6.60;2.40;;;;;;;16.18;79.15;97608.63;107815;1257;73228;-71
2023/10/28 01:42:16;;;;;;;8.40;2.30;;;;;;;16.21;78.87;97609.66;107870;1257;72429;-71
2023/10/28 01:44:43;;;;;;;6.00;2.20;;;;;;;16.22;78.71;97607.44;107670;1257;72529;-72
2023/10/28 01:47:09;;;;;;;7.80;2.60;;;;;;;16.26;78.37;97605.34;107851;1257;61967;-72
2023/10/28 01:49:37;;;;;;;6.30;2.20;;;;;;;16.27;77.99;97607.13;107797;1257;60992;-72
2023/10/28 01:52:04;;;;;;;3.90;2.00;;;;;;;16.30;77.78;97603.54;107846;1257;74561;-73
2023/10/28 01:54:33;;;;;;;4.50;2.00;;;;;;;16.32;77.33;97600.17;107839;1257;70610;-71
2023/10/28 01:57:01;;;;;;;5.50;2.20;;;;;;;16.34;77.08;97595.29;107765;1258;72417;-72
2023/10/28 01:59:28;;;;;;;4.00;2.30;;;;;;;16.37;76.73;97587.08;107694;1263;62321;-72
2023/10/28 02:01:56;;;;;;;5.20;2.10;;;;;;;16.39;76.54;97582.09;107641;1261;61334;-71
2023/10/28 02:04:23;;;;;;;5.50;2.10;;;;;;;16.41;76.25;97578.96;107748;1257;74689;-72
2023/10/28 02:06:50;;;;;;;5.00;1.90;;;;;;;16.43;75.99;97580.61;107603;1257;72437;-72
2023/10/28 02:09:17;;;;;;;5.10;1.70;;;;;;;16.45;75.71;97581.09;107745;1257;72814;-72
2023/10/28 02:11:44;;;;;;;4.40;1.60;;;;;;;16.47;75.49;97574.95;107632;1259;63043;-72
2023/10/28 02:14:11;;;;;;;5.00;1.80;;;;;;;16.49;75.30;97573.67;107705;1259;61333;-71
2023/10/28 02:16:39;;;;;;;7.30;1.90;;;;;;;16.50;75.06;97567.21;107807;1258;73593;-70
2023/10/28 02:19:05;;;;;;;4.70;2.00;;;;;;;16.52;74.57;97565.39;107808;1261;72791;-72
2023/10/28 02:21:33;;;;;;;5.60;1.80;;;;;;;16.56;74.35;97571.96;107752;1262;71584;-72
2023/10/28 02:24:00;;;;;;;4.70;1.90;;;;;;;16.59;74.03;97566.30;107803;1257;61721;-72
2023/10/28 02:26:26;;;;;;;4.30;1.80;;;;;;;16.63;73.66;97564.42;107639;1259;61280;-71
2023/10/28 02:28:54;;;;;;;4.20;1.50;;;;;;;16.68;72.95;97563.77;107625;1259;74736;-71
2023/10/28 02:31:21;;;;;;;4.90;1.90;;;;;;;16.75;72.26;97568.08;107629;1259;71458;-70
2023/10/28 02:33:48;;;;;;;6.30;1.90;;;;;;;16.82;71.65;97580.02;107807;1257;72522;-71
2023/10/28 02:36:14;;;;;;;4.70;1.50;;;;;;;16.89;70.06;97557.77;107758;1257;63116;-71
2023/10/28 02:38:41;;;;;;;3.10;1.30;;;;;;;17.00;68.85;97558.86;107788;1257;59785;-70
2023/10/28 02:41:08;;;;;;;5.00;1.30;;;;;;;17.08;66.97;97557.92;107606;1257;74454;-68
2023/10/28 02:43:36;;;;;;;4.30;1.30;;;;;;;17.15;65.57;97542.57;107795;1257;72728;-70
2023/10/28 02:46:03;;;;;;;3.20;1.10;;;;;;;17.19;64.27;97541.99;107806;1257;72500;-72
2023/10/28 02:48:30;;;;;;;3.70;1.10;;;;;;;17.21;62.84;97535.68;107737;1259;61269;-70
2023/10/28 02:51:06;;;;;;;1.90;1.00;;;;;;;17.21;62.29;97538.15;107750;1257;61178;-70
2023/10/28 02:53:37;;;;;;;2.00;0.80;;;;;;;17.18;61.46;97538.50;107821;1257;73922;-72
2023/10/28 02:56:14;;;;;;;7.20;1.00;;;;;;;17.11;60.04;97546.61;107614;1259;72871;-69
2023/10/28 02:58:47;;;;;;;2.40;0.30;;;;;;;17.01;58.20;97550.39;107683;1259;71656;-68
2023/10/28 03:01:15;;;;;;;1.40;0.30;;;;;;;16.88;56.16;97567.98;107769;1257;61292;-69
2023/10/28 03:03:42;;;;;;;0.60;0.30;;;;;;;16.75;55.91;97551.23;107782;1257;61940;-67
2023/10/28 03:06:10;;;;;;;1.20;0.20;;;;;;;16.61;55.84;97574.09;107801;1258;73578;-67
2023/10/28 03:08:38;;;;;;;1.20;0.40;;;;;;;16.44;56.04;97556.13;107717;1258;72705;-66
2023/10/28 03:11:06;;;;;;;2.60;0.30;;;;;;;16.26;56.10;97579.27;107562;1265;72411;-66
2023/10/28 03:13:34;;;;;;;1.10;0.20;;;;;;;16.13;56.79;97572.73;107593;1263;62092;-69
2023/10/28 13:12:51;;;;;;;1.20;0.90;;;;;;;13.77;57.73;98820.54;104711;1293;613043;-68
2023/10/28 13:15:18;;;;;;;3.20;0.80;;;;;;;14.14;55.51;98825.04;107208;1266;188481;-69
2023/10/28 13:17:48;;;;;;;2.20;0.80;;;;;;;14.13;55.37;98837.95;107412;1267;60393;-71
2023/10/28 13:20:16;;;;;;;1.20;0.80;;;;;;;14.07;54.98;98839.64;107355;1266;72273;-68
2023/10/28 13:22:44;;;;;;;1.70;0.90;;;;;;;14.03;54.88;98852.83;107391;1266;72656;-69
2023/10/28 13:25:12;;;;;;;2.50;0.90;;;;;;;14.00;54.95;98859.70;107363;1266;75167;-71
2023/10/28 13:27:39;;;;;;;1.30;0.90;;;;;;;13.99;55.16;98864.08;107394;1265;60247;-68
2023/10/28 13:30:07;;;;;;;1.40;0.90;;;;;;;13.96;54.98;98866.96;107365;1266;60716;-71
2023/10/28 13:32:35;;;;;;;1.90;0.90;;;;;;;13.93;55.26;98885.16;107416;1265;71032;-71
2023/10/28 13:35:18;;;;;;;2.50;1.10;;;;;;;13.91;55.52;98888.27;107400;1266;71279;-67
2023/10/28 13:37:49;;;;;;;1.30;0.90;;;;;;;13.87;55.57;98900.71;107462;1265;72981;-70
2023/10/28 13:40:19;;;;;;;2.40;1.10;;;;;;;13.86;55.59;98894.84;107468;1266;60187;-69
2023/10/28 13:42:46;;;;;;;1.50;0.90;;;;;;;13.83;55.70;98913.50;107966;1257;60293;-68
2023/10/28 13:45:13;;;;;;;2.50;0.90;;;;;;;13.78;56.06;98912.69;107842;1257;73074;-70
2023/10/28 13:47:42;;;;;;;1.80;1.00;;;;;;;13.74;56.31;98911.15;107936;1259;72419;-71
2023/10/28 13:50:09;;;;;;;1.50;0.90;;;;;;;13.72;56.46;98928.98;107893;1257;72553;-69
2023/10/28 13:52:36;;;;;;;2.30;1.10;;;;;;;13.69;56.42;98940.66;107849;1257;62059;-70
2023/10/28 13:55:04;;;;;;;2.10;1.10;;;;;;;13.67;55.83;98934.90;107870;1257;60082;-68
2023/10/28 13:57:32;;;;;;;2.10;1.00;;;;;;;13.69;55.87;98939.38;107953;1257;73021;-70
2023/10/28 13:59:59;;;;;;;2.00;1.20;;;;;;;13.67;55.41;98947.39;107916;1257;72728;-68
2023/10/28 14:02:26;;;;;;;1.80;1.10;;;;;;;13.67;55.32;98951.98;107761;1259;72490;-71
2023/10/28 14:04:53;;;;;;;1.90;1.10;;;;;;;13.67;54.95;98957.96;107766;1258;59710;-69
2023/10/28 14:07:20;;;;;;;2.00;1.00;;;;;;;13.66;54.62;98949.95;107756;1260;60589;-68
2023/10/28 14:09:47;;;;;;;2.10;1.30;;;;;;;13.65;54.51;98957.02;107749;1260;73044;-70
2023/10/28 14:12:15;;;;;;;1.40;1.00;;;;;;;13.60;54.25;98952.23;107794;1259;71247;-71
2023/10/28 14:14:42;;;;;;;3.20;1.00;;;;;;;13.57;54.04;98984.73;107700;1262;73134;-67
2023/10/28 14:17:09;;;;;;;2.10;1.10;;;;;;;13.56;54.01;98975.58;107727;1259;60466;-71
2023/10/28 14:19:36;;;;;;;2.70;1.10;;;;;;;13.56;53.91;98987.66;107696;1260;60269;-69
2023/10/28 14:22:03;;;;;;;1.90;1.00;;;;;;;13.57;54.07;98989.63;107717;1260;73189;-69
2023/10/28 14:24:30;;;;;;;3.60;1.20;;;;;;;13.55;53.88;99002.97;107872;1259;72723;-69
2023/10/28 14:26:58;;;;;;;2.00;1.10;;;;;;;13.52;53.98;99017.08;107777;1259;73082;-70
2023/10/28 14:29:24;;;;;;;2.10;1.30;;;;;;;13.50;54.38;99008.33;108023;1257;60422;-69
2023/10/28 14:31:54;;;;;;;2.50;1.30;;;;;;;13.48;54.89;99034.13;108041;1256;59545;-70
2023/10/28 14:34:21;;;;;;;2.10;1.20;;;;;;;13.44;55.34;99033.27;108048;1257;73264;-69
2023/10/28 14:36:48;;;;;;;2.30;1.40;;;;;;;13.41;55.60;99031.59;108027;1257;71456;-69
2023/10/28 14:39:14;;;;;;;1.90;1.20;;;;;;;13.40;55.98;99035.02;108068;1256;72683;-69
2023/10/28 14:41:42;;;;;;;2.80;1.20;;;;;;;13.38;56.10;99047.86;108021;1255;60367;-70
2023/10/28 14:44:09;;;;;;;3.70;1.50;;;;;;;13.35;56.34;99047.96;108045;1256;60440;-69
2023/10/28 14:46:37;;;;;;;3.20;1.30;;;;;;;13.33;56.45;99061.26;108050;1257;73155;-68
2023/10/28 14:49:04;;;;;;;2.30;1.40;;;;;;;13.29;56.38;99056.39;108063;1255;73495;-69
2023/10/28 14:51:31;;;;;;;2.30;1.40;;;;;;;13.27;56.56;99060.08;108017;1257;72525;-68
2023/10/28 14:53:58;;;;;;;2.70;1.50;;;;;;;13.26;56.75;99074.81;108061;1256;59748;-68
2023/10/28 14:56:29;;;;;;;2.60;1.40;;;;;;;13.26;56.83;99073.90;108027;1256;60332;-69
2023/10/28 14:58:56;;;;;;;1.80;1.30;;;;;;;13.27;56.83;99078.98;107996;1259;71973;-69
2023/10/28 15:01:23;;;;;;;2.30;1.40;;;;;;;13.24;56.92;99085.85;108108;1256;72746;-71
2023/10/28 15:03:50;;;;;;;2.10;1.30;;;;;;;13.22;56.75;99097.70;108144;1257;72651;-70
2023/10/28 15:06:18;;;;;;;3.10;1.50;;;;;;;13.22;56.62;99106.60;108154;1257;61938;-70
2023/10/28 15:08:49;;;;;;;2.10;1.40;;;;;;;13.21;56.43;99117.98;108181;1254;60155;-70
2023/10/28 15:11:16;;;;;;;2.10;1.40;;;;;;;13.24;56.59;99101.45;108163;1257;73286;-70
2023/10/28 15:13:44;;;;;;;2.10;1.40;;;;;;;13.24;56.57;99114.38;108101;1257;71449;-71
2023/10/28 15:16:12;;;;;;;2.70;1.60;;;;;;;13.23;56.66;99119.82;107992;1256;72521;-70
2023/10/28 15:18:41;;;;;;;2.20;1.30;;;;;;;13.22;56.42;99124.57;108147;1255;61808;-69
2023/10/28 15:21:17;;;;;;;1.90;1.20;;;;;;;13.22;56.61;99124.06;108204;1254;60341;-70
2023/10/28 15:23:44;;;;;;;2.30;1.40;;;;;;;13.22;56.71;99128.20;108098;1257;72519;-69
2023/10/28 15:26:17;;;;;;;2.10;1.30;;;;;;;13.22;56.93;99127.82;107942;1256;71041;-71
2023/10/28 15:28:45;;;;;;;2.40;1.50;;;;;;;13.20;57.25;99137.32;108079;1256;72496;-71
2023/10/28 15:31:13;;;;;;;2.30;1.40;;;;;;;13.16;57.00;99137.85;107866;1256;62105;-73
2023/10/28 15:33:44;;;;;;;2.80;1.50;;;;;;;13.14;57.15;99141.50;108102;1257;59393;-71
2023/10/28 15:36:12;;;;;;;3.30;1.80;;;;;;;13.12;57.44;99145.26;108057;1255;73038;-71
2023/10/28 15:38:39;;;;;;;3.10;1.90;;;;;;;13.07;57.48;99158.41;108077;1256;71685;-70
2023/10/28 15:41:06;;;;;;;3.10;1.70;;;;;;;13.01;57.64;99159.13;107987;1256;71063;-68
2023/10/28 15:43:34;;;;;;;3.20;1.70;;;;;;;12.98;57.91;99170.91;100442;1256;10002427;-70
2023/10/28 15:46:09;;;;;;;3.80;1.90;;;;;;;12.99;57.92;99169.39;93089;1257;10002109;-70
2023/10/28 15:48:40;;;;;;;3.40;1.70;;;;;;;12.99;58.03;99174.09;108257;1260;59330;-70
2023/10/28 15:51:07;;;;;;;2.60;1.60;;;;;;;12.97;58.24;99174.59;107770;1257;73199;-69
2023/10/28 15:53:38;;;;;;;3.00;1.80;;;;;;;12.94;58.26;99181.85;107976;1257;73166;-69
2023/10/28 15:56:08;;;;;;;3.20;1.60;;;;;;;12.94;58.47;99184.02;107757;1256;71784;-68
2023/10/28 15:58:36;;;;;;;2.90;1.70;;;;;;;12.94;58.48;99190.08;107750;1257;60458;-70
2023/10/28 16:01:03;;;;;;;3.40;1.70;;;;;;;12.93;58.59;99195.85;107638;1257;60341;-72
2023/10/28 16:03:30;;;;;;;2.60;1.60;;;;;;;12.89;58.77;99194.71;107693;1260;72717;-69
2023/10/28 16:06:00;;;;;;;3.30;1.70;;;;;;;12.85;58.77;99202.89;107945;1257;71447;-70
2023/10/28 16:08:27;;;;;;;4.40;1.80;;;;;;;12.80;58.90;99212.09;107714;1257;73590;-69
2023/10/28 16:10:56;;;;;;;2.80;1.70;;;;;;;12.76;59.08;99221.11;107811;1257;59613;-69
2023/10/28 16:13:23;;;;;;;2.80;1.80;;;;;;;12.70;59.17;99218.38;107822;1257;60336;-69
2023/10/28 16:15:50;;;;;;;3.20;1.90;;;;;;;12.66;59.33;99219.42;107669;1257;73604;-68
2023/10/28 16:18:17;;;;;;;2.90;1.60;;;;;;;12.62;59.40;99222.64;107848;1257;72767;-69
2023/10/28 16:20:45;;;;;;;2.50;1.60;;;;;;;12.58;59.67;99229.13;107804;1257;72017;-71
2023/10/28 16:23:14;;;;;;;2.60;1.60;;;;;;;12.55;59.92;99238.90;107798;1255;60681;-71
2023/10/28 16:25:41;;;;;;;2.80;1.50;;;;;;;12.51;60.23;99245.86;107889;1255;59961;-69
2023/10/28 16:28:10;;;;;;;2.90;1.60;;;;;;;12.47;60.33;99254.77;107763;1257;73567;-69
2023/10/28 16:30:37;;;;;;;2.30;1.40;;;;;;;12.43;60.50;99255.34;108105;1256;73059;-70
2023/10/28 16:33:04;;;;;;;2.60;1.60;;;;;;;12.42;60.56;99269.19;107825;1256;71471;-70
2023/10/28 16:35:32;;;;;;;3.00;1.80;;;;;;;12.43;60.69;99269.31;107800;1256;60540;-70
2023/10/28 16:37:59;;;;;;;4.80;2.10;;;;;;;12.45;60.82;99267.67;107835;1257;59627;-69
2023/10/28 16:40:26;;;;;;;2.80;1.70;;;;;;;12.48;60.80;99273.40;107780;1257;72964;-70
2023/10/28 16:42:54;;;;;;;3.10;1.70;;;;;;;12.52;60.84;99278.39;107684;1257;72710;-69
2023/10/28 16:45:20;;;;;;;3.70;1.70;;;;;;;12.57;60.92;99275.66;108125;1255;70963;-70
2023/10/28 16:47:49;;;;;;;2.90;1.50;;;;;;;12.61;60.94;99278.48;107900;1259;62033;-71
2023/10/28 16:50:17;;;;;;;4.80;1.90;;;;;;;12.63;61.04;99288.86;107859;1256;59570;-69
2023/10/28 16:52:46;;;;;;;3.50;2.10;;;;;;;12.63;61.11;99292.66;107851;1255;71622;-69
2023/10/28 16:55:17;;;;;;;4.40;2.50;;;;;;;12.63;61.29;99297.05;107773;1256;71590;-70
2023/10/28 16:57:44;;;;;;;3.90;2.50;;;;;;;12.64;61.45;99301.15;107894;1255;72768;-68
2023/10/28 17:00:13;;;;;;;4.90;2.50;;;;;;;12.65;61.43;99299.88;107663;1256;62131;-70
2023/10/28 17:02:40;;;;;;;3.80;2.20;;;;;;;12.65;61.63;99309.98;107994;1257;60147;-71
2023/10/28 17:05:08;;;;;;;5.30;2.50;;;;;;;12.63;61.82;99313.94;107850;1257;72005;-70
2023/10/28 17:07:36;;;;;;;5.20;2.50;;;;;;;12.62;62.11;99313.05;107940;1255;74020;-69
2023/10/28 17:10:03;;;;;;;4.60;2.80;;;;;;;12.58;62.44;99320.73;107807;1259;74145;-69
2023/10/28 17:12:30;;;;;;;4.40;2.70;;;;;;;12.56;62.68;99323.89;107817;1258;61708;-70
2023/10/28 17:14:57;;;;;;;4.40;2.70;;;;;;;12.56;62.77;99326.46;107805;1257;60292;-69
2023/10/28 17:17:24;;;;;;;5.60;3.00;;;;;;;12.52;63.16;99330.09;107738;1256;73607;-69
2023/10/28 17:19:51;;;;;;;4.50;2.50;;;;;;;12.50;63.29;99332.81;108832;1256;72788;-70
2023/10/28 17:22:18;;;;;;;6.20;3.10;;;;;;;12.45;63.50;99341.05;108432;1257;71802;-69
2023/10/28 17:24:45;;;;;;;5.10;2.90;;;;;;;12.42;63.53;99340.95;107760;1257;62127;-69
2023/10/28 17:27:13;;;;;;;5.50;3.20;;;;;;;12.37;63.92;99342.70;107797;1255;60435;-70
2023/10/28 17:29:43;;;;;;;5.40;3.70;;;;;;;12.34;64.17;99346.52;108180;1256;71315;-70
2023/10/28 17:32:12;;;;;;;4.70;3.10;;;;;;;12.30;64.34;99345.67;107727;1256;72774;-68
2023/10/28 17:34:39;;;;;;;5.60;3.10;;;;;;;12.28;64.56;99352.90;108292;1255;71423;-69
2023/10/28 17:37:06;;;;;;;5.50;3.40;;;;;;;12.28;64.77;99358.02;107781;1259;61953;-70
2023/10/28 17:39:35;;;;;;;5.50;3.60;;;;;;;12.27;64.90;99365.01;107810;1256;60268;-70
2023/10/28 17:42:02;;;;;;;5.10;3.20;;;;;;;12.25;65.26;99373.61;107829;1257;73014;-69
2023/10/28 17:44:29;;;;;;;5.20;3.40;;;;;;;12.24;65.49;99368.73;107811;1257;72702;-69
2023/10/28 17:46:58;;;;;;;6.20;3.60;;;;;;;12.26;65.47;99379.01;107779;1259;71395;-69
2023/10/28 17:49:25;;;;;;;5.10;2.90;;;;;;;12.29;65.48;99377.60;108909;1256;61755;-69
2023/10/28 17:51:52;;;;;;;6.40;3.70;;;;;;;12.32;65.52;99381.41;107976;1256;60482;-70
2023/10/28 17:54:19;;;;;;;5.90;3.60;;;;;;;12.32;65.59;99391.42;107781;1257;74113;-70
2023/10/28 17:56:48;;;;;;;5.60;3.40;;;;;;;12.31;65.62;99389.73;107993;1257;71680;-71
2023/10/28 17:59:15;;;;;;;5.80;3.50;;;;;;;12.28;65.67;99389.62;107952;1257;71686;-71
2023/10/28 18:01:42;;;;;;;4.90;3.10;;;;;;;12.26;65.78;99394.00;107987;1257;60470;-71
2023/10/28 18:04:09;;;;;;;5.10;3.50;;;;;;;12.23;65.72;99398.72;108026;1256;60325;-73
2023/10/28 18:06:37;;;;;;;4.80;3.30;;;;;;;12.20;65.93;99399.95;107894;1257;72818;-71
2023/10/28 18:09:10;;;;;;;4.80;3.30;;;;;;;12.20;65.99;99404.82;97742;1258;20001853;-69
2023/10/28 18:11:38;;;;;;;5.10;3.50;;;;;;;12.21;65.96;99402.98;100925;1256;10001315;-69
2023/10/28 18:14:05;;;;;;;4.60;3.20;;;;;;;12.24;65.99;99408.40;107901;1257;72766;-70
2023/10/28 18:16:32;;;;;;;4.30;3.20;;;;;;;12.25;66.03;99404.48;107804;1256;72414;-70
2023/10/28 18:19:00;;;;;;;4.60;3.20;;;;;;;12.26;66.03;99416.48;107866;1256;62063;-70
2023/10/28 18:21:26;;;;;;;4.70;3.20;;;;;;;12.30;65.86;99415.89;107886;1257;60492;-70
2023/10/28 18:23:53;;;;;;;4.60;2.90;;;;;;;12.39;65.66;99420.60;108088;1257;73815;-70
2023/10/28 18:26:22;;;;;;;4.40;2.90;;;;;;;12.43;65.37;99418.38;107950;1259;73408;-69
2023/10/28 18:28:49;;;;;;;4.00;2.80;;;;;;;12.52;65.08;99417.51;107924;1257;73204;-70
2023/10/28 18:31:18;;;;;;;4.50;2.70;;;;;;;12.59;64.70;99419.30;107871;1255;62094;-69
2023/10/28 18:33:52;;;;;;;4.20;2.70;;;;;;;12.63;64.50;99423.23;107916;1257;60284;-70
2023/10/28 18:36:22;;;;;;;4.10;2.80;;;;;;;12.64;64.28;99425.77;107988;1256;73887;-70
2023/10/28 18:38:50;;;;;;;4.10;2.60;;;;;;;12.64;64.27;99420.98;107789;1256;74391;-69
2023/10/28 18:41:17;;;;;;;3.70;2.60;;;;;;;12.60;64.20;99436.16;107884;1259;72601;-70
2023/10/28 18:43:45;;;;;;;4.10;2.40;;;;;;;12.58;64.17;99436.82;107889;1257;62064;-69
2023/10/28 18:46:13;;;;;;;3.40;2.20;;;;;;;12.57;64.03;99446.77;107903;1256;60290;-68
2023/10/28 18:48:40;;;;;;;3.30;2.10;;;;;;;12.57;64.07;99448.54;107918;1257;72732;-69
2023/10/28 18:51:08;;;;;;;4.20;2.50;;;;;;;12.57;64.09;99451.48;107976;1257;73112;-70
2023/10/28 18:53:35;;;;;;;4.40;2.60;;;;;;;12.56;63.84;99450.38;107908;1256;71710;-70
2023/10/28 18:56:09;;;;;;;3.50;2.40;;;;;;;12.53;63.92;99463.14;107922;1257;61820;-68
2023/10/28 18:58:39;;;;;;;3.60;2.10;;;;;;;12.52;64.07;99465.93;107896;1256;60448;-70
2023/10/28 19:01:12;;;;;;;4.40;2.40;;;;;;;12.51;63.99;99469.23;107851;1257;73953;-70
2023/10/28 19:03:43;;;;;;;3.80;2.80;;;;;;;12.48;64.18;99466.48;107952;1257;72842;-70
2023/10/28 19:06:14;;;;;;;4.60;2.60;;;;;;;12.46;64.28;99467.87;107954;1259;72785;-69
2023/10/28 19:08:42;;;;;;;4.00;2.90;;;;;;;12.42;64.15;99469.59;107998;1256;62196;-71
2023/10/28 19:11:10;;;;;;;4.90;2.40;;;;;;;12.40;64.47;99476.05;108035;1259;60465;-70
2023/10/28 19:13:37;;;;;;;4.20;2.40;;;;;;;12.40;64.47;99468.62;107917;1256;75083;-70
2023/10/28 19:16:07;;;;;;;4.30;2.80;;;;;;;12.37;64.66;99470.48;108031;1256;72701;-71
2023/10/28 19:18:34;;;;;;;3.90;2.30;;;;;;;12.34;64.76;99470.11;108114;1256;71298;-71
2023/10/28 19:21:02;;;;;;;4.90;3.00;;;;;;;12.30;64.89;99470.93;108044;1257;61805;-70
2023/10/28 19:23:30;;;;;;;4.30;2.50;;;;;;;12.26;64.90;99481.94;108171;1256;60402;-71
2023/10/28 19:25:59;;;;;;;5.30;2.80;;;;;;;12.21;65.20;99483.13;108065;1259;72645;-72
2023/10/28 19:28:26;;;;;;;4.60;3.10;;;;;;;12.18;65.43;99487.27;108100;1256;72807;-71
2023/10/28 19:30:54;;;;;;;6.40;2.90;;;;;;;12.16;65.63;99491.83;108090;1257;72714;-72
2023/10/28 19:33:21;;;;;;;4.80;2.90;;;;;;;12.15;65.78;99492.34;108020;1256;61687;-71
2023/10/28 19:35:49;;;;;;;5.10;3.00;;;;;;;12.11;65.92;99494.23;107967;1257;59206;-71
2023/10/28 19:38:16;;;;;;;4.30;2.90;;;;;;;12.02;66.30;99495.48;108052;1256;75343;-70
2023/10/28 19:40:43;;;;;;;4.50;2.70;;;;;;;12.02;66.37;99497.47;108018;1256;73042;-70
2023/10/28 19:43:11;;;;;;;3.90;2.70;;;;;;;12.01;66.48;99501.28;108175;1257;71396;-72
2023/10/28 19:45:39;;;;;;;3.70;2.50;;;;;;;12.00;66.67;99503.55;108008;1258;60645;-72
2023/10/28 19:48:07;;;;;;;4.00;2.80;;;;;;;12.00;66.76;99510.46;108073;1257;60376;-75
2023/10/28 19:50:35;;;;;;;4.60;3.00;;;;;;;11.97;66.82;99512.63;108114;1256;73864;-72
2023/10/28 19:53:02;;;;;;;3.40;2.20;;;;;;;11.93;66.91;99518.15;108095;1257;73096;-71
2023/10/28 19:55:29;;;;;;;4.30;2.50;;;;;;;11.74;67.58;99526.11;108116;1255;72905;-72
2023/10/28 19:57:56;;;;;;;4.00;2.50;;;;;;;11.88;67.38;99524.93;108150;1255;60326;-72
2023/10/28 20:00:23;;;;;;;5.10;2.50;;;;;;;11.88;67.24;99530.02;108049;1256;60594;-71
2023/10/28 20:02:51;;;;;;;4.50;2.50;;;;;;;11.86;67.18;99528.27;107985;1255;73995;-71
2023/10/28 20:05:20;;;;;;;3.90;2.50;;;;;;;11.80;67.33;99526.18;108201;1256;72797;-71
2023/10/28 20:07:50;;;;;;;3.70;2.20;;;;;;;11.31;68.34;99530.91;108018;1257;72748;-70
2023/10/28 20:10:21;;;;;;;5.00;3.00;;;;;;;11.22;68.92;99532.73;108130;1257;62198;-71
2023/10/28 20:12:48;;;;;;;4.10;2.70;;;;;;;11.06;69.55;99538.16;108124;1256;60035;-71
2023/10/28 20:15:15;;;;;;;5.20;2.70;;;;;;;11.17;69.62;99546.54;108074;1255;74002;-70
2023/10/28 20:17:42;;;;;;;4.60;2.90;;;;;;;11.46;68.99;99549.70;108131;1257;72612;-71
2023/10/28 20:20:09;;;;;;;4.00;2.40;;;;;;;11.57;68.71;99560.80;108078;1257;72769;-70
2023/10/28 20:22:36;;;;;;;5.00;2.80;;;;;;;11.50;68.70;99564.84;108108;1257;60393;-71
2023/10/28 20:25:04;;;;;;;3.90;2.60;;;;;;;11.57;68.62;99569.84;108069;1257;60437;-70
2023/10/28 20:27:32;;;;;;;3.70;2.20;;;;;;;11.57;68.56;99570.95;108139;1259;72617;-71
2023/10/28 20:29:59;;;;;;;5.10;2.60;;;;;;;11.50;68.94;99570.25;108080;1256;72593;-71
2023/10/28 20:32:25;;;;;;;4.90;2.30;;;;;;;11.63;68.59;99566.27;108046;1259;72434;-71
2023/10/28 20:34:52;;;;;;;4.30;2.50;;;;;;;11.67;68.51;99568.74;108082;1257;61906;-72
2023/10/28 20:37:19;;;;;;;5.00;2.40;;;;;;;11.69;68.36;99569.95;108157;1257;58956;-70
2023/10/28 20:39:46;;;;;;;4.60;2.70;;;;;;;11.69;68.42;99576.48;108132;1257;73728;-71
2023/10/28 20:42:16;;;;;;;5.40;2.80;;;;;;;11.68;68.34;99579.01;108077;1257;72725;-72
2023/10/28 20:44:44;;;;;;;4.00;2.50;;;;;;;11.66;68.18;99583.31;108093;1259;72400;-70
2023/10/28 20:47:11;;;;;;;4.60;3.00;;;;;;;11.62;68.33;99582.67;108184;1257;61813;-74
2023/10/28 20:49:38;;;;;;;5.90;3.30;;;;;;;11.53;68.34;99587.48;108133;1259;60603;-71
2023/10/28 20:52:06;;;;;;;4.90;3.20;;;;;;;11.45;68.40;99590.52;108124;1256;74090;-71
2023/10/28 20:54:33;;;;;;;3.60;2.40;;;;;;;11.39;68.52;99589.14;108130;1257;72535;-72
2023/10/28 20:57:00;;;;;;;3.90;2.50;;;;;;;11.33;68.71;99588.59;108077;1257;72682;-71
2023/10/28 20:59:28;;;;;;;4.10;2.60;;;;;;;11.27;68.90;99590.77;108098;1257;61927;-72
2023/10/28 21:01:56;;;;;;;4.20;2.60;;;;;;;11.24;68.93;99599.52;108061;1255;59191;-72
2023/10/28 21:04:23;;;;;;;3.60;2.70;;;;;;;11.22;69.14;99608.44;108020;1257;73921;-72
2023/10/28 21:06:50;;;;;;;4.80;2.70;;;;;;;11.19;69.39;99613.08;108045;1257;72773;-73
2023/10/28 21:09:18;;;;;;;4.30;2.50;;;;;;;11.18;69.69;99614.31;108081;1256;71776;-72
2023/10/28 21:11:45;;;;;;;4.70;2.80;;;;;;;11.20;69.95;99614.50;108058;1259;61277;-74
2023/10/28 21:14:12;;;;;;;4.60;2.60;;;;;;;11.25;70.09;99612.85;108047;1257;60514;-73
2023/10/28 21:16:39;;;;;;;4.00;2.60;;;;;;;11.32;70.19;99609.98;108013;1257;73688;-72
2023/10/28 21:19:06;;;;;;;4.30;2.60;;;;;;;11.38;70.22;99609.55;108085;1259;72719;-72
2023/10/28 21:21:33;;;;;;;4.40;2.70;;;;;;;11.44;70.18;99606.95;108043;1257;72559;-72
2023/10/28 21:24:01;;;;;;;5.30;2.80;;;;;;;11.47;70.08;99609.27;108099;1256;60394;-71